createdAt,value
2019-03-12T00:01:12.440Z,17.63
2019-03-12T00:03:42.980Z,16.47
2019-03-12T00:06:14.959Z,17.20
2019-03-12T00:08:45.610Z,18.93
2019-03-12T00:11:16.076Z,16.37
2019-03-12T00:13:46.581Z,13.53
2019-03-12T00:16:17.045Z,7.77
2019-03-12T00:18:47.556Z,10.50
2019-03-12T00:21:18.064Z,8.83
2019-03-12T00:23:48.621Z,11.17
2019-03-12T00:26:20.664Z,5.57
2019-03-12T00:28:52.414Z,11.17
2019-03-12T00:31:24.177Z,14.77
2019-03-12T00:33:54.650Z,16.13
2019-03-12T00:36:25.082Z,20.33
2019-03-12T00:38:55.565Z,19.77
2019-03-12T00:41:26.055Z,18.53
2019-03-12T00:43:56.544Z,14.67
2019-03-12T00:46:27.275Z,17.00
2019-03-12T00:48:57.741Z,16.50
2019-03-12T00:51:29.730Z,18.90
2019-03-12T00:54:00.206Z,18.07
2019-03-12T00:56:30.592Z,16.43
2019-03-12T00:59:01.447Z,11.97
2019-03-12T01:01:32.870Z,10.07
2019-03-12T01:04:03.346Z,11.33
2019-03-12T01:06:33.821Z,11.03
2019-03-12T01:09:05.821Z,15.60
2019-03-12T01:11:36.313Z,13.37
2019-03-12T01:14:06.799Z,13.27
2019-03-12T01:16:37.307Z,13.47
2019-03-12T01:19:07.721Z,12.73
2019-03-12T01:21:38.179Z,11.97
2019-03-12T01:24:09.070Z,12.27
2019-03-12T01:26:39.728Z,11.37
2019-03-12T01:29:10.336Z,11.33
2019-03-12T01:31:40.758Z,9.57
2019-03-12T01:34:11.523Z,14.93
2019-03-12T01:36:41.963Z,15.50
2019-03-12T01:39:12.566Z,17.03
2019-03-12T01:42:00.688Z,18.47
2019-03-12T01:44:31.186Z,21.27
2019-03-12T01:47:01.699Z,16.57
2019-03-12T01:49:32.177Z,20.82
2019-03-12T01:52:02.644Z,16.83
2019-03-12T01:54:33.060Z,14.87
2019-03-12T01:57:03.497Z,16.30
2019-03-12T01:59:33.934Z,14.03
2019-03-12T02:02:04.454Z,16.33
2019-03-12T02:04:34.933Z,12.80
2019-03-12T02:07:05.473Z,13.10
2019-03-12T02:09:35.872Z,9.63
2019-03-12T02:12:06.411Z,9.10
2019-03-12T02:14:36.822Z,8.50
2019-03-12T02:17:07.381Z,5.70
2019-03-12T02:19:37.887Z,7.60
2019-03-12T02:22:08.324Z,8.30
2019-03-12T02:24:51.736Z,8.73
2019-03-12T02:27:11.519Z,7.97
2019-03-12T02:29:41.889Z,8.57
2019-03-12T02:32:12.302Z,8.30
2019-03-12T02:34:42.762Z,11.97
2019-03-12T02:37:13.181Z,12.50
2019-03-12T02:39:43.650Z,12.40
2019-03-12T02:42:14.028Z,10.50
2019-03-12T02:44:44.515Z,9.83
2019-03-12T02:47:14.881Z,12.03
2019-03-12T02:49:46.355Z,10.93
2019-03-12T02:52:17.235Z,8.67
2019-03-12T02:54:47.734Z,7.70
2019-03-12T02:57:18.199Z,6.90
2019-03-12T02:59:48.663Z,6.70
2019-03-12T03:02:19.051Z,5.67
2019-03-12T03:04:53.909Z,6.77
2019-03-12T03:07:23.209Z,5.33
2019-03-12T03:09:53.683Z,5.43
2019-03-12T03:12:24.070Z,7.50
2019-03-12T03:14:54.510Z,9.27
2019-03-12T03:17:24.896Z,8.57
2019-03-12T03:19:55.296Z,8.73
2019-03-12T03:22:25.723Z,9.43
2019-03-12T03:24:56.299Z,9.30
2019-03-12T03:27:29.225Z,11.27
2019-03-12T03:29:58.814Z,9.60
2019-03-12T03:32:29.296Z,8.60
2019-03-12T03:34:59.711Z,11.43
2019-03-12T03:37:30.221Z,9.43
2019-03-12T03:40:00.726Z,13.37
2019-03-12T03:42:31.258Z,14.27
2019-03-12T03:45:01.633Z,13.00
2019-03-12T03:47:32.070Z,13.50
2019-03-12T03:50:02.523Z,14.73
2019-03-12T03:52:33.051Z,15.93
2019-03-12T03:55:03.640Z,12.03
2019-03-12T03:57:34.071Z,14.80
2019-03-12T04:00:07.258Z,11.07
2019-03-12T04:02:37.766Z,10.53
2019-03-12T04:05:08.730Z,12.30
2019-03-12T04:07:41.337Z,9.60
2019-03-12T04:10:13.394Z,10.17
2019-03-12T04:12:44.924Z,8.67
2019-03-12T04:15:18.012Z,11.17
2019-03-12T04:17:48.582Z,8.87
2019-03-12T04:20:19.549Z,9.90
2019-03-12T04:22:49.970Z,11.73
2019-03-12T04:25:20.595Z,13.78
2019-03-12T04:27:51.162Z,10.10
2019-03-12T04:30:23.269Z,10.03
2019-03-12T04:32:53.803Z,8.07
2019-03-12T04:35:27.268Z,8.73
2019-03-12T04:38:00.538Z,12.77
2019-03-12T04:40:30.980Z,9.50
2019-03-12T04:43:03.356Z,14.57
2019-03-12T04:45:33.458Z,10.50
2019-03-12T04:48:04.502Z,12.87
2019-03-12T04:50:34.949Z,9.53
2019-03-12T04:53:05.301Z,9.17
2019-03-12T04:55:35.754Z,10.17
2019-03-12T04:58:06.245Z,10.57
2019-03-12T05:04:27.381Z,20.25
2019-03-12T05:09:49.044Z,15.23
2019-03-12T05:12:20.561Z,21.13
2019-03-12T05:14:51.014Z,25.93
2019-03-12T05:17:21.502Z,18.73
2019-03-12T05:19:52.521Z,21.00
2019-03-12T05:22:23.004Z,20.60
2019-03-12T05:24:55.191Z,15.43
2019-03-12T05:27:26.003Z,20.60
2019-03-12T05:29:59.192Z,13.77
2019-03-12T05:32:32.003Z,17.17
2019-03-12T05:35:02.713Z,20.00
2019-03-12T05:37:37.936Z,15.53
2019-03-12T05:40:18.560Z,12.13
2019-03-12T05:45:48.393Z,9.07
2019-03-12T05:48:29.435Z,12.03
2019-03-12T05:51:08.031Z,14.80
2019-03-12T05:53:47.824Z,12.47
2019-03-12T05:56:19.819Z,12.70
2019-03-12T05:58:54.872Z,26.73
2019-03-12T06:01:25.401Z,13.90
2019-03-12T06:03:56.575Z,15.60
2019-03-12T06:09:34.403Z,22.30
2019-03-12T06:12:10.626Z,18.57
2019-03-12T06:14:41.332Z,19.63
2019-03-12T06:20:05.407Z,22.77
2019-03-12T06:22:35.900Z,26.40
2019-03-12T06:25:06.768Z,26.77
2019-03-12T06:27:37.348Z,19.37
2019-03-12T06:30:26.015Z,16.07
2019-03-12T06:33:03.908Z,18.17
2019-03-12T06:35:38.684Z,13.03
2019-03-12T06:38:23.797Z,16.57
2019-03-12T06:41:20.799Z,25.33
2019-03-12T06:43:54.535Z,11.47
2019-03-12T06:46:26.645Z,19.23
2019-03-12T06:48:59.624Z,10.43
2019-03-12T06:51:31.710Z,9.70
2019-03-12T06:54:07.186Z,11.53
2019-03-12T06:56:40.018Z,13.00
2019-03-12T06:59:23.225Z,16.13
2019-03-12T07:02:08.798Z,15.10
2019-03-12T07:04:43.640Z,15.20
2019-03-12T07:07:21.774Z,16.90
2019-03-12T07:10:09.426Z,19.90
2019-03-12T07:12:41.509Z,28.50
2019-03-12T07:15:17.556Z,25.57
2019-03-12T07:17:52.463Z,22.40
2019-03-12T07:20:27.248Z,21.90
2019-03-12T07:22:59.369Z,20.20
2019-03-12T07:25:37.172Z,27.50
2019-03-12T07:28:20.917Z,18.60
2019-03-12T07:30:52.982Z,24.37
2019-03-12T07:33:37.210Z,15.07
2019-03-12T07:36:25.255Z,23.00
2019-03-12T07:39:08.333Z,19.13
2019-03-12T07:41:45.643Z,17.20
2019-03-12T07:44:19.675Z,14.83
2019-03-12T07:46:51.685Z,11.90
2019-03-12T07:49:26.518Z,10.67
2019-03-12T07:52:08.887Z,11.07
2019-03-12T07:54:56.039Z,11.53
2019-03-12T07:57:29.076Z,14.67
2019-03-12T08:00:17.493Z,14.83
2019-03-12T08:02:53.659Z,10.87
2019-03-12T08:05:32.032Z,13.40
2019-03-12T08:08:20.315Z,9.63
2019-03-12T08:10:52.418Z,9.20
2019-03-12T08:13:27.381Z,10.43
2019-03-12T08:16:03.714Z,13.07
2019-03-12T08:18:35.815Z,10.03
2019-03-12T08:21:22.325Z,16.07
2019-03-12T08:23:53.102Z,10.70
2019-03-12T08:26:45.209Z,17.23
2019-03-12T08:29:19.992Z,15.33
2019-03-12T08:32:03.534Z,15.87
2019-03-12T08:34:38.169Z,19.57
2019-03-12T08:37:15.999Z,17.00
2019-03-12T08:39:48.022Z,15.17
2019-03-12T08:42:23.114Z,16.27
2019-03-12T08:44:55.293Z,18.30
2019-03-12T08:47:40.072Z,12.60
2019-03-12T08:50:24.191Z,16.40
2019-03-12T08:53:05.121Z,21.33
2019-03-12T08:55:40.108Z,20.97
2019-03-12T08:58:12.128Z,20.60
2019-03-12T09:00:59.209Z,12.40
2019-03-12T09:03:48.722Z,13.80
2019-03-12T09:06:20.784Z,11.03
2019-03-12T09:09:07.657Z,9.27
2019-03-12T09:11:39.609Z,15.60
2019-03-12T09:14:18.487Z,9.45
2019-03-12T09:16:50.407Z,6.33
2019-03-12T09:19:27.946Z,7.93
2019-03-12T09:22:16.090Z,9.93
2019-03-12T09:24:48.161Z,9.30
2019-03-12T09:27:27.033Z,10.47
2019-03-12T09:30:04.539Z,9.03
2019-03-12T09:32:44.493Z,6.73
2019-03-12T09:35:25.455Z,6.77
2019-03-12T09:38:00.079Z,8.73
2019-03-12T09:40:35.332Z,7.67
2019-03-12T09:43:14.729Z,6.37
2019-03-12T09:45:46.791Z,7.00
2019-03-12T09:48:18.748Z,9.43
2019-03-12T09:50:53.241Z,4.73
2019-03-12T09:53:28.195Z,5.70
2019-03-12T09:56:00.224Z,7.23
2019-03-12T09:58:41.266Z,4.37
2019-03-12T10:01:29.211Z,8.93
2019-03-12T10:04:06.944Z,7.23
2019-03-12T10:06:55.219Z,6.37
2019-03-12T10:09:36.353Z,9.77
2019-03-12T10:12:08.354Z,6.43
2019-03-12T10:14:52.100Z,6.20
2019-03-12T10:17:38.995Z,6.60
2019-03-12T10:20:14.062Z,5.90
2019-03-12T10:22:46.371Z,9.20
2019-03-12T10:25:32.521Z,3.90
2019-03-12T10:28:07.502Z,9.47
2019-03-12T10:30:39.506Z,5.50
2019-03-12T10:33:11.540Z,2.80
2019-03-12T10:36:00.866Z,5.13
2019-03-12T10:39:14.732Z,5.07
2019-03-12T10:42:03.028Z,3.40
2019-03-12T10:44:35.063Z,3.83
2019-03-12T10:47:20.329Z,4.23
2019-03-12T10:49:51.073Z,2.23
2019-03-12T10:52:21.431Z,3.57
2019-03-12T10:54:51.845Z,4.10
2019-03-12T10:57:22.274Z,3.00
2019-03-12T10:59:52.659Z,3.00
2019-03-12T11:02:23.090Z,3.97
2019-03-12T11:04:54.935Z,2.87
2019-03-12T11:07:25.614Z,7.47
2019-03-12T11:09:56.503Z,3.40
2019-03-12T11:12:26.977Z,4.17
2019-03-12T11:14:57.373Z,5.23
2019-03-12T11:17:27.786Z,6.47
2019-03-12T11:19:58.288Z,6.23
2019-03-12T11:22:28.727Z,3.90
2019-03-12T11:24:59.237Z,2.53
2019-03-12T11:27:29.737Z,5.33
2019-03-12T11:30:00.407Z,4.67
2019-03-12T11:32:31.061Z,3.87
2019-03-12T11:35:01.463Z,5.13
2019-03-12T11:37:31.896Z,5.03
2019-03-12T11:40:02.618Z,4.63
2019-03-12T11:42:33.184Z,5.50
2019-03-12T11:45:13.437Z,8.68
2019-03-12T11:47:36.801Z,6.63
2019-03-12T11:50:10.249Z,4.80
2019-03-12T11:52:52.654Z,5.43
2019-03-12T11:55:15.314Z,4.77
2019-03-12T11:57:45.924Z,4.13
2019-03-12T12:00:20.657Z,4.90
2019-03-12T12:03:00.080Z,3.87
2019-03-12T12:05:23.411Z,2.90
2019-03-12T12:07:53.795Z,3.13
2019-03-12T12:10:24.369Z,3.37
2019-03-12T12:12:59.790Z,4.30
2019-03-12T12:15:30.514Z,3.50
2019-03-12T12:18:00.951Z,3.10
2019-03-12T12:20:31.355Z,5.47
2019-03-12T12:23:01.765Z,3.90
2019-03-12T12:25:32.272Z,5.75
2019-03-12T12:28:02.642Z,4.70
2019-03-12T12:30:34.201Z,3.17
2019-03-12T12:33:04.791Z,7.53
2019-03-12T12:35:35.169Z,5.33
2019-03-12T12:38:05.799Z,3.63
2019-03-12T12:40:37.782Z,6.00
2019-03-12T12:43:08.157Z,4.47
2019-03-12T12:45:41.203Z,3.43
2019-03-12T12:48:11.535Z,5.13
2019-03-12T12:50:41.902Z,5.30
2019-03-12T12:53:15.242Z,4.93
2019-03-12T12:55:47.249Z,3.87
2019-03-12T12:58:17.676Z,6.37
2019-03-12T13:00:48.033Z,6.97
2019-03-12T13:03:18.467Z,4.00
2019-03-12T13:05:51.775Z,6.37
2019-03-12T13:08:22.259Z,5.97
2019-03-12T13:11:00.087Z,4.43
2019-03-12T13:13:33.162Z,4.03
2019-03-12T13:16:03.571Z,4.27
2019-03-12T13:18:33.922Z,4.67
2019-03-12T13:21:06.391Z,9.33
2019-03-12T13:23:36.818Z,4.20
2019-03-12T13:26:08.991Z,4.93
2019-03-12T13:28:39.955Z,4.97
2019-03-12T13:31:10.381Z,9.97
2019-03-12T13:33:40.782Z,5.70
2019-03-12T13:36:12.791Z,6.37
2019-03-12T13:38:46.134Z,5.35
2019-03-12T13:41:15.264Z,5.33
2019-03-12T13:43:47.363Z,4.43
2019-03-12T13:46:17.913Z,6.67
2019-03-12T13:48:48.286Z,5.50
2019-03-12T13:51:18.753Z,6.97
2019-03-12T13:53:49.335Z,4.60
2019-03-12T13:56:19.917Z,6.90
2019-03-12T13:58:50.354Z,5.73
2019-03-12T14:01:20.759Z,6.47
2019-03-12T14:03:51.288Z,8.70
2019-03-12T14:06:21.752Z,10.40
2019-03-12T14:08:52.179Z,7.83
2019-03-12T14:11:22.604Z,5.47
2019-03-12T14:13:53.031Z,9.03
2019-03-12T14:16:23.543Z,11.27
2019-03-12T14:18:53.975Z,4.93
2019-03-12T14:21:24.443Z,5.87
2019-03-12T14:24:00.472Z,4.47
2019-03-12T14:26:31.343Z,5.23
2019-03-12T14:29:01.763Z,6.10
2019-03-12T14:31:32.194Z,6.67
2019-03-12T14:34:02.671Z,9.53
2019-03-12T14:36:33.648Z,6.53
2019-03-12T14:39:08.693Z,7.17
2019-03-12T14:41:41.655Z,6.17
2019-03-12T14:44:12.295Z,7.87
2019-03-12T14:46:42.656Z,9.30
2019-03-12T14:49:13.135Z,10.73
2019-03-12T14:51:46.532Z,8.33
2019-03-12T14:54:16.934Z,4.40
2019-03-12T14:56:47.382Z,6.97
2019-03-12T14:59:17.801Z,6.43
2019-03-12T15:01:48.218Z,4.90
2019-03-12T15:04:20.226Z,7.73
2019-03-12T15:06:52.020Z,11.17
2019-03-12T15:09:22.400Z,12.03
2019-03-12T15:11:52.897Z,13.10
2019-03-12T15:14:23.352Z,7.20
2019-03-12T15:16:53.789Z,6.43
2019-03-12T15:19:24.242Z,13.50
2019-03-12T15:21:57.547Z,12.27
2019-03-12T15:24:31.130Z,9.93
2019-03-12T15:27:03.076Z,9.63
2019-03-12T15:29:33.552Z,7.07
2019-03-12T15:32:04.733Z,6.50
2019-03-12T15:34:35.351Z,6.73
2019-03-12T15:37:05.776Z,6.23
2019-03-12T15:39:36.205Z,7.30
2019-03-12T15:42:09.399Z,9.97
2019-03-12T15:44:40.063Z,8.13
2019-03-12T15:47:10.578Z,9.65
2019-03-12T15:49:42.954Z,8.17
2019-03-12T15:52:13.181Z,6.27
2019-03-12T15:54:45.701Z,9.67
2019-03-12T15:57:16.328Z,8.27
2019-03-12T15:59:51.838Z,8.37
2019-03-12T16:02:27.531Z,7.70
2019-03-12T16:08:02.220Z,5.50
2019-03-12T16:10:38.022Z,5.93
2019-03-12T16:13:10.049Z,6.63
2019-03-12T16:15:41.805Z,8.07
2019-03-12T16:18:15.393Z,8.33
2019-03-12T16:20:49.026Z,8.37
2019-03-12T16:23:21.595Z,6.80
2019-03-12T16:25:51.965Z,9.00
2019-03-12T16:28:24.896Z,16.53
2019-03-12T16:30:55.351Z,26.27
2019-03-12T16:33:26.999Z,32.48
2019-03-12T16:36:02.072Z,32.20
2019-03-12T16:38:36.055Z,36.83
2019-03-12T16:41:06.343Z,37.20
2019-03-12T16:43:36.735Z,29.53
2019-03-12T16:46:07.330Z,32.70
2019-03-12T16:48:39.432Z,37.97
2019-03-12T16:51:23.729Z,37.93
2019-03-12T16:54:13.614Z,39.30
2019-03-12T16:56:55.129Z,38.40
2019-03-12T16:59:25.625Z,42.70
2019-03-12T17:02:14.803Z,36.97
2019-03-12T17:04:46.942Z,49.07
2019-03-12T17:07:18.972Z,45.10
2019-03-12T17:09:51.373Z,40.87
2019-03-12T17:12:30.743Z,39.40
2019-03-12T17:15:06.570Z,32.27
2019-03-12T17:17:57.422Z,41.63
2019-03-12T17:20:28.898Z,40.53
2019-03-12T17:23:01.127Z,42.17
2019-03-12T17:25:34.624Z,59.83
2019-03-12T17:28:10.526Z,40.50
2019-03-12T17:30:41.188Z,36.37
2019-03-12T17:33:11.912Z,43.57
2019-03-12T17:35:43.145Z,38.73
2019-03-12T17:38:15.575Z,44.00
2019-03-12T17:40:56.043Z,43.67
2019-03-12T17:46:55.657Z,58.90
2019-03-12T17:49:25.813Z,57.60
2019-03-12T17:51:56.202Z,63.07
2019-03-12T17:54:26.594Z,76.80
2019-03-12T17:57:05.311Z,85.47
2019-03-12T17:59:37.451Z,136.03
2019-03-12T18:02:07.996Z,91.00
2019-03-12T18:04:39.098Z,156.60
2019-03-12T18:07:23.558Z,121.40
2019-03-12T18:10:01.500Z,97.97
2019-03-12T18:12:43.498Z,123.00
2019-03-12T18:17:28.539Z,130.93
2019-03-12T18:18:36.240Z,117.03
2019-03-12T18:21:10.235Z,115.63
2019-03-12T18:23:40.775Z,111.73
2019-03-12T18:26:11.291Z,132.27
2019-03-12T18:28:41.865Z,133.03
2019-03-12T18:31:12.585Z,116.83
2019-03-12T18:33:43.180Z,99.60
2019-03-12T18:36:36.081Z,116.47
2019-03-12T18:39:12.342Z,122.03
2019-03-12T18:41:45.863Z,110.97
2019-03-12T18:44:16.548Z,104.83
2019-03-12T18:46:47.167Z,95.83
2019-03-12T18:49:17.797Z,97.40
2019-03-12T18:51:48.403Z,86.17
2019-03-12T18:54:18.989Z,84.60
2019-03-12T18:56:49.449Z,82.47
2019-03-12T18:59:20.193Z,93.33
2019-03-12T19:01:50.805Z,88.03
2019-03-12T19:04:21.290Z,92.33
2019-03-12T19:06:53.359Z,105.35
2019-03-12T19:09:25.499Z,109.00
2019-03-12T19:11:56.445Z,152.33
2019-03-12T19:14:27.035Z,106.83
2019-03-12T19:17:01.973Z,103.62
2019-03-12T19:19:32.887Z,110.97
2019-03-12T19:22:04.026Z,116.80
2019-03-12T19:24:35.461Z,104.73
2019-03-12T19:27:06.522Z,105.13
2019-03-12T19:29:37.852Z,110.47
2019-03-12T19:35:34.853Z,142.47
2019-03-12T19:38:07.406Z,130.40
2019-03-12T19:40:41.070Z,116.73
2019-03-12T19:43:13.569Z,126.00
2019-03-12T19:45:45.352Z,102.40
2019-03-12T19:48:16.264Z,138.87
2019-03-12T19:50:47.111Z,91.90
2019-03-12T19:53:18.307Z,87.60
2019-03-12T19:56:02.542Z,82.40
2019-03-12T19:58:33.528Z,71.10
2019-03-12T20:01:05.060Z,91.60
2019-03-12T20:03:43.283Z,80.57
2019-03-12T20:06:13.652Z,95.17
2019-03-12T20:08:54.189Z,87.57
2019-03-12T20:15:18.826Z,72.83
2019-03-12T20:18:17.427Z,84.20
2019-03-12T20:21:24.064Z,82.03
2019-03-12T20:25:12.405Z,84.50
2019-03-12T20:27:15.978Z,88.70
2019-03-12T20:33:43.020Z,87.40
2019-03-12T20:36:33.219Z,80.43
2019-03-12T20:39:30.779Z,83.60
2019-03-12T20:42:19.483Z,92.33
2019-03-12T20:45:14.091Z,90.63
2019-03-12T20:47:56.454Z,112.37
2019-03-12T20:50:46.450Z,90.67
2019-03-12T20:53:45.688Z,89.63
2019-03-12T20:56:53.550Z,95.73
2019-03-12T21:00:00.388Z,105.77
2019-03-12T21:02:50.497Z,121.53
2019-03-12T21:05:43.637Z,123.20
2019-03-12T21:08:49.995Z,132.27
2019-03-12T21:11:37.776Z,114.60
2019-03-12T21:14:27.520Z,108.30
2019-03-12T21:17:12.876Z,106.27
2019-03-12T21:20:02.651Z,110.00
2019-03-12T21:22:45.098Z,103.17
2019-03-12T21:25:27.312Z,107.80
2019-03-12T21:28:03.164Z,102.60
2019-03-12T21:30:33.631Z,102.70
2019-03-12T21:33:14.871Z,97.97
2019-03-12T21:35:36.119Z,85.53
2019-03-12T21:38:06.777Z,89.10
2019-03-12T21:40:37.447Z,86.00
2019-03-12T21:43:07.993Z,86.57
2019-03-12T21:45:38.489Z,121.70
2019-03-12T21:48:08.886Z,97.70
2019-03-12T21:50:39.259Z,102.40
2019-03-12T21:53:09.782Z,97.50
2019-03-12T21:55:40.171Z,88.80
2019-03-12T21:58:10.655Z,83.23
2019-03-12T22:00:41.161Z,86.90
2019-03-12T22:03:16.191Z,95.33
2019-03-12T22:05:45.116Z,110.30
2019-03-12T22:08:15.611Z,102.33
2019-03-12T22:10:45.988Z,75.27
2019-03-12T22:13:16.548Z,66.10
2019-03-12T22:15:47.021Z,76.83
2019-03-12T22:18:17.416Z,69.40
2019-03-12T22:20:51.063Z,57.30
2019-03-12T22:23:24.210Z,53.73
2019-03-12T22:25:56.007Z,58.47
2019-03-12T22:28:30.331Z,49.87
2019-03-12T22:31:03.066Z,54.70
2019-03-12T22:33:33.706Z,58.13
2019-03-12T22:36:04.095Z,49.13
2019-03-12T22:38:34.491Z,47.10
2019-03-12T22:41:04.931Z,49.30
2019-03-12T22:43:35.315Z,50.13
2019-03-12T22:46:06.285Z,50.80
2019-03-12T22:48:36.715Z,48.17
2019-03-12T22:51:07.218Z,50.63
2019-03-12T22:53:40.348Z,48.33
2019-03-12T22:56:10.822Z,48.33
2019-03-12T22:58:41.265Z,44.60
2019-03-12T23:01:11.726Z,50.73
2019-03-12T23:03:42.254Z,47.13
2019-03-12T23:06:12.671Z,37.77
2019-03-12T23:08:43.181Z,41.13
2019-03-12T23:11:13.697Z,36.33
2019-03-12T23:13:44.230Z,41.67
2019-03-12T23:16:14.600Z,35.33
2019-03-12T23:18:45.089Z,31.47
2019-03-12T23:21:16.819Z,31.17
2019-03-12T23:23:47.309Z,31.13
2019-03-12T23:26:17.736Z,30.60
2019-03-12T23:28:48.147Z,31.93
2019-03-12T23:31:18.591Z,30.83
2019-03-12T23:33:48.946Z,31.90
2019-03-12T23:36:19.417Z,33.88
2019-03-12T23:38:50.011Z,30.80
2019-03-12T23:41:20.486Z,28.70
2019-03-12T23:43:50.851Z,29.30
2019-03-12T23:46:21.297Z,26.77
2019-03-12T23:48:51.740Z,27.33
2019-03-12T23:51:22.175Z,28.67
2019-03-12T23:53:52.613Z,29.50
2019-03-12T23:56:23.032Z,30.27
2019-03-12T23:58:53.434Z,30.17
